Time;durP1;ratioP1;P1;durP2;ratioP2;P2;SDS_P1;SDS_P2;PMS_P1;PMS_P2;Temp;Humidity;BMP_temperature;BMP_pressure;BME280_temperature;BME280_humidity;BME280_pressure;Samples;Min_cycle;Max_cycle;Signal;HPM_P1;HPM_P2
2024/01/14 00:08:21;;;;;;;28.83;16.53;;;;;;;;;;5026447;28;20227;-54
2024/01/14 00:10:47;;;;;;;27.20;16.53;;;;;;;;;;5017703;28;20159;-54
2024/01/14 00:13:13;;;;;;;28.37;17.87;;;;;;;;;;5020094;28;20172;-53
2024/01/14 00:15:39;;;;;;;27.57;16.90;;;;;;;;;;5020737;28;20176;-53
2024/01/14 00:18:05;;;;;;;26.30;16.27;;;;;;;;;;5027911;28;20240;-53
2024/01/14 00:20:31;;;;;;;28.27;17.77;;;;;;;;;;5022960;28;20656;-54
2024/01/14 00:22:57;;;;;;;30.17;16.27;;;;;;;;;;5024393;28;20242;-54
2024/01/14 00:25:23;;;;;;;27.40;17.93;;;;;;;;;;5025938;28;20177;-54
2024/01/14 00:27:49;;;;;;;29.27;17.60;;;;;;;;;;5024604;28;20708;-54
2024/01/14 00:30:16;;;;;;;24.80;16.50;;;;;;;;;;5019467;28;20224;-54
2024/01/14 00:32:41;;;;;;;28.03;17.07;;;;;;;;;;5019328;28;20253;-54
2024/01/14 00:35:08;;;;;;;25.40;16.60;;;;;;;;;;5019225;28;20713;-53
2024/01/14 00:37:34;;;;;;;28.83;17.20;;;;;;;;;;5021454;28;20190;-53
2024/01/14 00:40:00;;;;;;;27.60;17.33;;;;;;;;;;5029432;28;20534;-53
2024/01/14 00:42:26;;;;;;;27.30;16.70;;;;;;;;;;5021785;28;20202;-54
2024/01/14 00:44:52;;;;;;;29.63;16.90;;;;;;;;;;5020106;28;20230;-53
2024/01/14 00:47:18;;;;;;;29.43;16.60;;;;;;;;;;5026045;28;20792;-54
2024/01/14 00:49:44;;;;;;;26.93;17.30;;;;;;;;;;5027300;28;20660;-53
2024/01/14 00:52:10;;;;;;;28.20;17.97;;;;;;;;;;5023263;28;20693;-54
2024/01/14 00:54:36;;;;;;;23.13;15.87;;;;;;;;;;5014040;28;20274;-53
2024/01/14 00:57:04;;;;;;;28.57;17.00;;;;;;;;;;5028847;28;20202;-53
2024/01/14 00:59:30;;;;;;;29.00;16.60;;;;;;;;;;5028480;28;20178;-53
2024/01/14 01:01:56;;;;;;;28.33;16.33;;;;;;;;;;5017357;28;20178;-54
2024/01/14 01:04:22;;;;;;;27.80;17.47;;;;;;;;;;5015518;28;20525;-53
2024/01/14 01:06:48;;;;;;;29.17;17.90;;;;;;;;;;5024476;28;20221;-54
2024/01/14 01:09:14;;;;;;;29.50;18.40;;;;;;;;;;5024685;28;20653;-54
2024/01/14 01:11:40;;;;;;;26.23;16.20;;;;;;;;;;5019319;28;20204;-54
2024/01/14 01:14:07;;;;;;;30.10;17.47;;;;;;;;;;5021986;28;20565;-53
2024/01/14 01:16:34;;;;;;;28.70;16.67;;;;;;;;;;5014395;28;20190;-54
2024/01/14 01:19:00;;;;;;;25.20;17.27;;;;;;;;;;5017405;28;20587;-54
2024/01/14 01:21:26;;;;;;;27.83;18.00;;;;;;;;;;5023586;28;20167;-54
2024/01/14 01:23:52;;;;;;;28.83;16.80;;;;;;;;;;5016573;28;20510;-53
2024/01/14 01:26:18;;;;;;;25.10;17.17;;;;;;;;;;5021922;28;20261;-54
2024/01/14 01:28:44;;;;;;;24.83;15.73;;;;;;;;;;5022103;28;20345;-53
2024/01/14 01:31:10;;;;;;;29.23;18.00;;;;;;;;;;5013377;28;20170;-53
2024/01/14 01:33:36;;;;;;;28.20;18.07;;;;;;;;;;5018085;28;20210;-53
2024/01/14 01:36:02;;;;;;;24.53;16.60;;;;;;;;;;5016279;28;20201;-53
2024/01/14 01:38:28;;;;;;;30.30;16.50;;;;;;;;;;5021467;28;20202;-53
2024/01/14 01:40:54;;;;;;;27.60;16.87;;;;;;;;;;5012486;28;20637;-53
2024/01/14 01:43:20;;;;;;;28.30;16.43;;;;;;;;;;5012599;28;20190;-53
2024/01/14 01:45:46;;;;;;;25.13;16.77;;;;;;;;;;5012748;28;20765;-53
2024/01/14 01:48:13;;;;;;;27.53;16.33;;;;;;;;;;5021239;28;20265;-53
2024/01/14 01:50:39;;;;;;;24.87;16.50;;;;;;;;;;5019184;28;20192;-54
2024/01/14 01:53:05;;;;;;;28.87;17.50;;;;;;;;;;5016350;28;20171;-53
2024/01/14 01:55:31;;;;;;;26.70;16.80;;;;;;;;;;5026809;28;20240;-54
2024/01/14 01:57:57;;;;;;;32.00;16.80;;;;;;;;;;5020331;28;20205;-54
2024/01/14 02:00:24;;;;;;;26.13;16.63;;;;;;;;;;5027382;28;20174;-53
2024/01/14 02:02:50;;;;;;;26.43;16.60;;;;;;;;;;5022948;28;20178;-54
2024/01/14 02:05:17;;;;;;;29.23;18.00;;;;;;;;;;5021483;28;20206;-54
2024/01/14 02:07:44;;;;;;;27.80;17.70;;;;;;;;;;5029730;28;20182;-54
2024/01/14 02:10:10;;;;;;;23.80;16.40;;;;;;;;;;5020473;28;20233;-54
2024/01/14 02:12:36;;;;;;;29.37;17.47;;;;;;;;;;5029665;28;20684;-54
2024/01/14 02:15:02;;;;;;;31.00;18.90;;;;;;;;;;5022584;28;20185;-54
2024/01/14 02:17:28;;;;;;;24.43;16.77;;;;;;;;;;5023077;28;20236;-54
2024/01/14 02:19:54;;;;;;;26.90;18.37;;;;;;;;;;5022500;28;20219;-54
2024/01/14 02:22:28;;;;;;;27.77;17.27;;;;;;;;;;5021336;28;20679;-53
2024/01/14 02:24:54;;;;;;;31.60;17.80;;;;;;;;;;5022207;28;20174;-54
2024/01/14 02:27:20;;;;;;;28.57;16.30;;;;;;;;;;5024514;28;20210;-54
2024/01/14 02:29:47;;;;;;;25.03;17.00;;;;;;;;;;5028240;28;20275;-54
2024/01/14 02:32:13;;;;;;;26.03;16.70;;;;;;;;;;5019171;28;20181;-54
2024/01/14 02:34:39;;;;;;;25.77;16.33;;;;;;;;;;5015665;28;20230;-54
2024/01/14 02:37:06;;;;;;;28.23;16.97;;;;;;;;;;5015435;28;20291;-53
2024/01/14 02:39:32;;;;;;;26.97;16.37;;;;;;;;;;5027489;28;20186;-59
2024/01/14 02:41:58;;;;;;;25.97;15.60;;;;;;;;;;5024704;28;20636;-53
2024/01/14 02:44:24;;;;;;;27.53;16.87;;;;;;;;;;5023680;28;20221;-54
2024/01/14 02:46:50;;;;;;;29.87;16.83;;;;;;;;;;5023330;28;20194;-57
2024/01/14 02:49:16;;;;;;;29.50;17.63;;;;;;;;;;5025705;28;20173;-57
2024/01/14 02:51:44;;;;;;;23.30;15.10;;;;;;;;;;5022744;28;20212;-56
2024/01/14 02:54:10;;;;;;;28.47;17.00;;;;;;;;;;5025749;28;20178;-57
2024/01/14 02:56:36;;;;;;;23.13;15.13;;;;;;;;;;5020284;28;20188;-58
2024/01/14 02:59:02;;;;;;;28.40;16.03;;;;;;;;;;5025385;28;20186;-57
2024/01/14 03:01:28;;;;;;;29.17;17.10;;;;;;;;;;5020864;28;20185;-58
2024/01/14 03:03:54;;;;;;;22.83;15.77;;;;;;;;;;5021513;28;20181;-57
2024/01/14 03:06:20;;;;;;;24.80;16.20;;;;;;;;;;5023453;28;20175;-57
2024/01/14 03:08:46;;;;;;;28.23;17.60;;;;;;;;;;5025020;28;20762;-56
2024/01/14 03:11:12;;;;;;;26.20;16.80;;;;;;;;;;5023960;28;20253;-57
2024/01/14 03:13:38;;;;;;;26.63;17.13;;;;;;;;;;5011426;28;20576;-57
2024/01/14 03:16:04;;;;;;;24.90;16.23;;;;;;;;;;5014471;28;20221;-57
2024/01/14 03:18:31;;;;;;;32.13;16.63;;;;;;;;;;5020659;28;20727;-57
2024/01/14 03:20:57;;;;;;;26.90;17.07;;;;;;;;;;5017197;28;20174;-57
2024/01/14 03:23:23;;;;;;;27.67;16.90;;;;;;;;;;5019487;28;20224;-59
2024/01/14 03:25:49;;;;;;;26.03;16.27;;;;;;;;;;5029970;28;20210;-57
2024/01/14 03:28:15;;;;;;;25.33;15.73;;;;;;;;;;5019215;28;20254;-57
2024/01/14 03:30:41;;;;;;;25.70;17.10;;;;;;;;;;5015117;28;20267;-57
2024/01/14 03:33:07;;;;;;;25.00;15.33;;;;;;;;;;5016940;28;20174;-57
2024/01/14 03:35:33;;;;;;;24.07;16.00;;;;;;;;;;5020590;28;21165;-58
2024/01/14 03:37:59;;;;;;;27.30;17.37;;;;;;;;;;5020348;28;20233;-58
2024/01/14 03:40:25;;;;;;;28.10;15.90;;;;;;;;;;5026952;28;20229;-58
2024/01/14 03:42:51;;;;;;;24.33;16.07;;;;;;;;;;5020393;28;20198;-57
2024/01/14 03:45:17;;;;;;;31.60;17.30;;;;;;;;;;5014342;28;20228;-57
2024/01/14 03:47:43;;;;;;;28.03;17.00;;;;;;;;;;5016441;28;20186;-58
2024/01/14 03:50:09;;;;;;;28.13;17.47;;;;;;;;;;5015979;28;20644;-57
2024/01/14 03:52:35;;;;;;;33.17;17.43;;;;;;;;;;5017448;28;20593;-57
2024/01/14 03:55:01;;;;;;;25.10;15.73;;;;;;;;;;5022603;28;20634;-55
2024/01/14 03:57:27;;;;;;;24.60;16.53;;;;;;;;;;5019809;28;20259;-58
2024/01/14 03:59:53;;;;;;;26.47;15.43;;;;;;;;;;5020184;28;20212;-57
2024/01/14 04:02:19;;;;;;;24.40;16.43;;;;;;;;;;5012594;28;20174;-57
2024/01/14 04:04:45;;;;;;;28.13;16.27;;;;;;;;;;5014670;28;20173;-57
2024/01/14 04:07:11;;;;;;;21.63;14.07;;;;;;;;;;5017117;28;20178;-57
2024/01/14 04:09:37;;;;;;;24.90;14.93;;;;;;;;;;5013309;28;20213;-57
2024/01/14 04:12:03;;;;;;;24.30;15.67;;;;;;;;;;5014835;28;20183;-57
2024/01/14 04:14:30;;;;;;;24.67;15.53;;;;;;;;;;5024195;28;20649;-58
2024/01/14 04:16:56;;;;;;;22.93;15.03;;;;;;;;;;5022914;28;20583;-57
2024/01/14 04:19:22;;;;;;;21.57;15.10;;;;;;;;;;5021750;28;20219;-57
2024/01/14 04:21:48;;;;;;;23.00;14.70;;;;;;;;;;5022408;28;20174;-57
2024/01/14 04:24:14;;;;;;;24.33;15.07;;;;;;;;;;5028682;28;20185;-58
2024/01/14 04:26:41;;;;;;;23.07;14.47;;;;;;;;;;5030184;28;20613;-57
2024/01/14 04:29:07;;;;;;;23.43;15.67;;;;;;;;;;5016079;28;20246;-57
2024/01/14 04:31:33;;;;;;;24.23;15.73;;;;;;;;;;5013695;28;20174;-55
2024/01/14 04:34:01;;;;;;;25.23;16.10;;;;;;;;;;5024265;28;20182;-57
2024/01/14 04:36:27;;;;;;;24.10;15.57;;;;;;;;;;5021225;28;20194;-58
2024/01/14 04:38:53;;;;;;;28.57;17.27;;;;;;;;;;5018652;28;20213;-58
2024/01/14 04:41:19;;;;;;;23.37;15.03;;;;;;;;;;5025131;28;20622;-58
2024/01/14 04:43:45;;;;;;;27.23;16.93;;;;;;;;;;5011900;28;20568;-57
2024/01/14 04:46:11;;;;;;;23.57;15.30;;;;;;;;;;5014405;28;20189;-59
2024/01/14 04:48:37;;;;;;;22.53;15.60;;;;;;;;;;5015249;28;20178;-57
2024/01/14 04:51:03;;;;;;;26.13;15.63;;;;;;;;;;5016254;28;20185;-57
2024/01/14 04:53:29;;;;;;;25.00;15.93;;;;;;;;;;5025904;28;20276;-58
2024/01/14 04:55:55;;;;;;;25.40;16.53;;;;;;;;;;5022528;28;20201;-58
2024/01/14 04:58:21;;;;;;;26.87;16.60;;;;;;;;;;5028838;28;20198;-62
2024/01/14 05:00:47;;;;;;;25.37;15.20;;;;;;;;;;5013693;28;20233;-57
2024/01/14 05:03:13;;;;;;;25.57;15.07;;;;;;;;;;5019908;28;20687;-58
2024/01/14 05:05:39;;;;;;;24.67;15.50;;;;;;;;;;5022250;28;20186;-57
2024/01/14 05:08:06;;;;;;;24.67;14.77;;;;;;;;;;5016858;28;20202;-54
2024/01/14 05:10:32;;;;;;;25.53;14.97;;;;;;;;;;5022651;28;20191;-53
2024/01/14 05:12:58;;;;;;;23.93;15.77;;;;;;;;;;5026736;28;20562;-54
2024/01/14 05:15:24;;;;;;;24.57;15.60;;;;;;;;;;5028355;28;20186;-54
2024/01/14 05:17:50;;;;;;;25.87;15.80;;;;;;;;;;5027116;28;20200;-53
2024/01/14 05:20:16;;;;;;;25.23;15.57;;;;;;;;;;5029139;28;20162;-54
2024/01/14 05:22:42;;;;;;;27.23;15.43;;;;;;;;;;5016283;28;20178;-54
2024/01/14 05:25:08;;;;;;;24.87;15.50;;;;;;;;;;5026357;28;20617;-54
2024/01/14 05:27:34;;;;;;;26.20;15.93;;;;;;;;;;5020416;28;20181;-54
2024/01/14 05:30:00;;;;;;;24.33;14.97;;;;;;;;;;5015748;28;20179;-54
2024/01/14 05:32:26;;;;;;;26.03;16.40;;;;;;;;;;5025831;28;20193;-53
2024/01/14 05:34:52;;;;;;;27.47;16.80;;;;;;;;;;5019129;28;20174;-54
2024/01/14 05:37:18;;;;;;;27.83;16.80;;;;;;;;;;5017890;28;20591;-54
2024/01/14 05:39:44;;;;;;;24.43;15.73;;;;;;;;;;5025488;28;20179;-53
2024/01/14 05:42:10;;;;;;;25.47;15.80;;;;;;;;;;5016892;28;20252;-54
2024/01/14 05:44:36;;;;;;;25.90;16.67;;;;;;;;;;5016413;28;20308;-54
2024/01/14 05:47:02;;;;;;;26.07;17.43;;;;;;;;;;5029961;28;20193;-53
2024/01/14 05:49:28;;;;;;;26.80;17.83;;;;;;;;;;5025329;28;20549;-54
2024/01/14 05:51:54;;;;;;;23.70;16.10;;;;;;;;;;5028711;28;20193;-54
2024/01/14 05:54:20;;;;;;;22.53;15.90;;;;;;;;;;5016887;28;20190;-54
2024/01/14 05:56:46;;;;;;;27.67;16.77;;;;;;;;;;5028607;28;20173;-54
2024/01/14 05:59:12;;;;;;;25.20;16.97;;;;;;;;;;5016642;28;20178;-54
2024/01/14 06:01:38;;;;;;;24.40;16.27;;;;;;;;;;5027339;28;20626;-54
2024/01/14 06:04:05;;;;;;;27.10;14.67;;;;;;;;;;5015383;28;20193;-54
2024/01/14 06:06:31;;;;;;;26.73;16.37;;;;;;;;;;5028784;28;20699;-54
2024/01/14 06:08:57;;;;;;;23.30;15.80;;;;;;;;;;5023927;28;20185;-54
2024/01/14 06:11:23;;;;;;;24.83;16.10;;;;;;;;;;5030239;28;20264;-54
2024/01/14 06:13:49;;;;;;;25.83;16.30;;;;;;;;;;5025853;28;20292;-54
2024/01/14 06:16:15;;;;;;;29.80;18.13;;;;;;;;;;5014964;28;20180;-54
2024/01/14 06:18:41;;;;;;;28.03;18.07;;;;;;;;;;5029988;28;20597;-53
2024/01/14 06:21:08;;;;;;;27.97;17.60;;;;;;;;;;5029106;28;20180;-52
2024/01/14 06:23:34;;;;;;;23.87;16.97;;;;;;;;;;5026490;28;20180;-52
2024/01/14 06:26:00;;;;;;;25.60;17.73;;;;;;;;;;5022758;28;20261;-51
2024/01/14 06:28:26;;;;;;;24.93;16.90;;;;;;;;;;5014350;28;20261;-52
2024/01/14 06:30:53;;;;;;;28.47;17.47;;;;;;;;;;5029700;28;20186;-52
2024/01/14 06:33:20;;;;;;;26.97;16.63;;;;;;;;;;5011340;28;20186;-53
2024/01/14 06:35:46;;;;;;;26.60;16.73;;;;;;;;;;5023456;28;20205;-51
2024/01/14 06:38:12;;;;;;;28.40;16.43;;;;;;;;;;5020932;28;20225;-51
2024/01/14 06:40:38;;;;;;;24.80;16.50;;;;;;;;;;5030781;28;20182;-51
2024/01/14 06:43:04;;;;;;;25.33;16.77;;;;;;;;;;5024962;28;20257;-52
2024/01/14 06:45:30;;;;;;;25.37;16.60;;;;;;;;;;5026380;28;20683;-51
2024/01/14 06:47:56;;;;;;;25.90;17.37;;;;;;;;;;5019564;28;20186;-52
2024/01/14 06:50:22;;;;;;;29.00;18.03;;;;;;;;;;5019820;28;20182;-53
2024/01/14 06:52:48;;;;;;;23.00;16.03;;;;;;;;;;5024654;28;20586;-51
2024/01/14 06:55:14;;;;;;;24.87;15.60;;;;;;;;;;5018092;28;20185;-53
2024/01/14 06:57:40;;;;;;;24.17;16.33;;;;;;;;;;5021441;28;20232;-52
2024/01/14 07:00:10;;;;;;;25.73;16.20;;;;;;;;;;5010823;28;20269;-54
2024/01/14 07:02:36;;;;;;;24.83;16.20;;;;;;;;;;5012046;28;20618;-53
2024/01/14 07:05:03;;;;;;;27.30;18.03;;;;;;;;;;5026081;28;20218;-51
2024/01/14 07:07:29;;;;;;;22.13;15.17;;;;;;;;;;5028947;28;20188;-51
2024/01/14 07:09:55;;;;;;;22.73;16.00;;;;;;;;;;5023006;28;20618;-51
2024/01/14 07:12:21;;;;;;;25.90;15.97;;;;;;;;;;5019870;28;20182;-52
2024/01/14 07:14:47;;;;;;;24.93;15.97;;;;;;;;;;5026701;28;20260;-52
2024/01/14 07:17:13;;;;;;;25.80;16.97;;;;;;;;;;5033123;28;20283;-52
2024/01/14 07:19:39;;;;;;;23.03;15.63;;;;;;;;;;5018913;28;20376;-52
2024/01/14 07:22:06;;;;;;;24.00;15.10;;;;;;;;;;5016865;28;20655;-52
2024/01/14 07:24:33;;;;;;;24.73;15.80;;;;;;;;;;5011080;28;20576;-51
2024/01/14 07:27:01;;;;;;;22.37;15.53;;;;;;;;;;5015256;28;20197;-52
2024/01/14 07:29:27;;;;;;;25.33;15.83;;;;;;;;;;5020751;28;20681;-52
2024/01/14 07:31:53;;;;;;;19.97;13.53;;;;;;;;;;5021182;28;20232;-51
2024/01/14 07:34:19;;;;;;;23.10;15.87;;;;;;;;;;5012234;28;20225;-51
2024/01/14 07:36:45;;;;;;;25.77;15.80;;;;;;;;;;5012359;28;20182;-52
2024/01/14 07:39:12;;;;;;;26.67;15.17;;;;;;;;;;5022468;28;20181;-51
2024/01/14 07:41:39;;;;;;;25.13;15.37;;;;;;;;;;5024832;28;20174;-51
2024/01/14 07:44:05;;;;;;;20.87;14.67;;;;;;;;;;5012843;28;20238;-52
2024/01/14 07:46:31;;;;;;;21.53;14.27;;;;;;;;;;5018495;28;20271;-53
2024/01/14 07:48:57;;;;;;;23.63;15.70;;;;;;;;;;5020582;28;20520;-53
2024/01/14 07:51:23;;;;;;;22.73;15.53;;;;;;;;;;5021766;28;20253;-52
2024/01/14 07:53:49;;;;;;;27.03;16.70;;;;;;;;;;5013050;28;20595;-52
2024/01/14 07:56:15;;;;;;;23.57;14.70;;;;;;;;;;5013976;28;20362;-53
2024/01/14 07:58:41;;;;;;;22.13;14.23;;;;;;;;;;5023370;28;20201;-51
2024/01/14 08:01:07;;;;;;;26.70;16.07;;;;;;;;;;5025311;28;20672;-52
2024/01/14 08:03:35;;;;;;;21.50;14.40;;;;;;;;;;5020469;28;20645;-53
2024/01/14 08:06:01;;;;;;;21.07;13.67;;;;;;;;;;5015718;28;20170;-52
2024/01/14 08:08:27;;;;;;;23.03;14.50;;;;;;;;;;5014488;28;20239;-51
2024/01/14 08:10:54;;;;;;;21.83;14.53;;;;;;;;;;5014827;28;20192;-51
2024/01/14 08:13:20;;;;;;;23.60;14.13;;;;;;;;;;5020558;28;20575;-51
2024/01/14 08:15:46;;;;;;;21.67;14.23;;;;;;;;;;5015283;28;20537;-51
2024/01/14 08:18:12;;;;;;;22.70;14.73;;;;;;;;;;5013251;28;20198;-52
2024/01/14 08:20:38;;;;;;;20.70;13.43;;;;;;;;;;5020154;28;20202;-51
2024/01/14 08:23:05;;;;;;;18.77;13.83;;;;;;;;;;5024312;28;20204;-52
2024/01/14 08:25:31;;;;;;;22.27;12.77;;;;;;;;;;5015279;28;20185;-52
2024/01/14 08:27:57;;;;;;;19.67;12.43;;;;;;;;;;5022241;28;20197;-52
2024/01/14 08:30:23;;;;;;;21.30;14.20;;;;;;;;;;5022307;28;20189;-52
2024/01/14 08:32:49;;;;;;;19.07;12.97;;;;;;;;;;5013708;28;20649;-52
2024/01/14 08:35:15;;;;;;;20.73;12.43;;;;;;;;;;5022293;28;20562;-52
2024/01/14 08:37:43;;;;;;;18.43;12.30;;;;;;;;;;5030262;28;20247;-53
2024/01/14 08:40:09;;;;;;;20.37;12.87;;;;;;;;;;5035059;28;20173;-54
2024/01/14 08:42:35;;;;;;;20.57;13.00;;;;;;;;;;5018925;28;20194;-54
2024/01/14 08:45:01;;;;;;;19.07;12.50;;;;;;;;;;5031039;28;20711;-54
2024/01/14 08:47:27;;;;;;;19.30;13.30;;;;;;;;;;5017569;28;20914;-54
2024/01/14 08:49:53;;;;;;;18.53;12.23;;;;;;;;;;5019261;28;20192;-53
2024/01/14 08:52:19;;;;;;;18.23;11.77;;;;;;;;;;5015151;28;20291;-53
2024/01/14 08:54:45;;;;;;;20.83;12.70;;;;;;;;;;5027666;28;20659;-54
2024/01/14 08:57:12;;;;;;;18.23;12.23;;;;;;;;;;5033220;28;20217;-53
2024/01/14 08:59:38;;;;;;;18.70;11.53;;;;;;;;;;5023807;28;20186;-53
2024/01/14 09:02:04;;;;;;;17.77;12.07;;;;;;;;;;5029666;28;20182;-54
2024/01/14 09:04:30;;;;;;;22.37;12.13;;;;;;;;;;5020431;28;20252;-54
2024/01/14 09:06:56;;;;;;;18.50;11.13;;;;;;;;;;5019602;28;20655;-53
2024/01/14 09:09:22;;;;;;;19.30;11.60;;;;;;;;;;5015814;28;20217;-53
2024/01/14 09:11:48;;;;;;;18.60;11.60;;;;;;;;;;5021133;28;20186;-54
2024/01/14 09:14:14;;;;;;;18.40;11.90;;;;;;;;;;5016458;28;20232;-54
2024/01/14 09:16:41;;;;;;;18.67;10.57;;;;;;;;;;5020891;28;20186;-54
2024/01/14 09:19:07;;;;;;;17.17;11.73;;;;;;;;;;5029393;28;20307;-54
2024/01/14 09:21:33;;;;;;;17.97;11.07;;;;;;;;;;5018580;28;20182;-54
2024/01/14 09:23:59;;;;;;;19.70;11.67;;;;;;;;;;5024050;28;20186;-54
2024/01/14 09:26:25;;;;;;;17.20;11.77;;;;;;;;;;5024810;28;20194;-54
2024/01/14 09:28:51;;;;;;;18.70;11.87;;;;;;;;;;5020466;28;20253;-54
2024/01/14 09:31:17;;;;;;;16.57;10.57;;;;;;;;;;5025394;28;20181;-54
2024/01/14 09:33:44;;;;;;;16.07;11.17;;;;;;;;;;5015099;28;20368;-53
2024/01/14 09:36:11;;;;;;;19.17;12.30;;;;;;;;;;5031585;28;20186;-54
2024/01/14 09:38:37;;;;;;;18.03;11.37;;;;;;;;;;5021671;28;20205;-54
2024/01/14 09:41:13;;;;;;;19.07;11.70;;;;;;;;;;5012072;28;21522;-54
2024/01/14 09:43:41;;;;;;;22.33;11.93;;;;;;;;;;5020062;28;20289;-54
2024/01/14 09:46:07;;;;;;;16.27;10.30;;;;;;;;;;5017995;28;20682;-54
2024/01/14 09:48:33;;;;;;;19.47;11.67;;;;;;;;;;5026036;28;20210;-53
2024/01/14 09:51:03;;;;;;;17.23;11.43;;;;;;;;;;5027048;28;20344;-52
2024/01/14 09:53:29;;;;;;;16.00;10.87;;;;;;;;;;5015541;28;20612;-52
2024/01/14 09:55:56;;;;;;;14.23;10.20;;;;;;;;;;5013289;28;20174;-52
2024/01/14 09:58:22;;;;;;;16.63;10.20;;;;;;;;;;5021799;28;20205;-52
2024/01/14 10:00:48;;;;;;;16.80;10.60;;;;;;;;;;5025265;28;20179;-52
2024/01/14 10:03:14;;;;;;;16.73;9.97;;;;;;;;;;5017003;28;20716;-51
2024/01/14 10:05:41;;;;;;;16.87;10.47;;;;;;;;;;5019681;28;20174;-51
2024/01/14 10:08:07;;;;;;;16.07;9.57;;;;;;;;;;5013354;28;20507;-51
2024/01/14 10:10:34;;;;;;;15.00;9.27;;;;;;;;;;5026946;28;20188;-51
2024/01/14 10:13:03;;;;;;;13.67;9.27;;;;;;;;;;5011397;28;20186;-51
2024/01/14 10:15:31;;;;;;;13.17;9.33;;;;;;;;;;5019759;28;20544;-51
2024/01/14 10:17:57;;;;;;;14.77;9.87;;;;;;;;;;5026084;28;20307;-51
2024/01/14 10:20:23;;;;;;;14.20;10.03;;;;;;;;;;5018627;28;20279;-53
2024/01/14 10:22:50;;;;;;;15.50;10.00;;;;;;;;;;5022325;28;20189;-52
2024/01/14 10:25:16;;;;;;;14.53;9.43;;;;;;;;;;5020025;28;20210;-51
2024/01/14 10:27:42;;;;;;;16.03;10.80;;;;;;;;;;5024278;28;20186;-54
2024/01/14 10:30:10;;;;;;;15.37;10.57;;;;;;;;;;5019711;28;20788;-51
2024/01/14 10:32:36;;;;;;;12.53;9.20;;;;;;;;;;5023312;28;20182;-53
2024/01/14 10:35:09;;;;;;;13.00;8.90;;;;;;;;;;5028011;28;20676;-52
2024/01/14 10:37:35;;;;;;;16.07;10.63;;;;;;;;;;5014945;28;20289;-51
2024/01/14 10:40:04;;;;;;;12.60;9.03;;;;;;;;;;5017219;28;20634;-52
2024/01/14 10:42:30;;;;;;;17.57;10.17;;;;;;;;;;5021144;28;20673;-50
2024/01/14 10:44:56;;;;;;;14.93;9.90;;;;;;;;;;5027714;28;20741;-53
2024/01/14 10:47:24;;;;;;;13.67;9.87;;;;;;;;;;5029656;28;20637;-51
2024/01/14 10:49:51;;;;;;;14.23;9.87;;;;;;;;;;5018410;28;20225;-52
2024/01/14 10:52:17;;;;;;;14.30;9.90;;;;;;;;;;5021968;28;20641;-51
2024/01/14 10:54:50;;;;;;;15.37;10.07;;;;;;;;;;5022746;28;20181;-53
2024/01/14 10:57:35;;;;;;;13.73;9.63;;;;;;;;;;5021037;28;20201;-51
2024/01/14 11:00:05;;;;;;;13.63;9.60;;;;;;;;;;5017270;28;20192;-58
2024/01/14 11:02:32;;;;;;;14.17;9.47;;;;;;;;;;5021937;28;20220;-56
2024/01/14 11:04:59;;;;;;;18.20;10.27;;;;;;;;;;5025706;28;20197;-58
2024/01/14 11:07:25;;;;;;;14.03;9.27;;;;;;;;;;5024202;28;20214;-57
2024/01/14 11:09:52;;;;;;;14.03;8.93;;;;;;;;;;5019978;28;20672;-58
2024/01/14 11:12:21;;;;;;;12.80;9.37;;;;;;;;;;5023311;28;20621;-58
2024/01/14 11:15:01;;;;;;;15.33;9.27;;;;;;;;;;5016319;28;20634;-58
2024/01/14 11:17:36;;;;;;;13.77;9.47;;;;;;;;;;5016088;28;20300;-57
2024/01/14 11:20:02;;;;;;;14.13;9.17;;;;;;;;;;5019070;28;20169;-55
2024/01/14 11:22:28;;;;;;;14.70;9.73;;;;;;;;;;5015103;28;20188;-58
2024/01/14 11:24:54;;;;;;;12.40;9.20;;;;;;;;;;5018718;28;20199;-58
2024/01/14 11:27:21;;;;;;;13.67;9.87;;;;;;;;;;5015565;28;20181;-58
2024/01/14 11:29:47;;;;;;;14.37;9.57;;;;;;;;;;5015925;28;20208;-56
2024/01/14 11:32:14;;;;;;;14.57;9.47;;;;;;;;;;5024430;28;20201;-58
2024/01/14 11:34:49;;;;;;;13.90;8.97;;;;;;;;;;5016870;28;20634;-57
2024/01/14 11:37:33;;;;;;;13.03;9.07;;;;;;;;;;5021149;28;20238;-57
2024/01/14 11:40:11;;;;;;;14.60;9.20;;;;;;;;;;5016254;28;20182;-57
2024/01/14 11:42:50;;;;;;;13.77;8.37;;;;;;;;;;5023309;28;20201;-58
2024/01/14 11:45:25;;;;;;;13.43;8.67;;;;;;;;;;5020543;28;20236;-57
2024/01/14 11:48:03;;;;;;;15.00;8.97;;;;;;;;;;5013972;28;20169;-57
2024/01/14 11:50:29;;;;;;;13.43;9.20;;;;;;;;;;5018322;28;20665;-58
2024/01/14 11:52:57;;;;;;;13.80;8.73;;;;;;;;;;5016749;28;20190;-57
2024/01/14 11:55:27;;;;;;;12.33;8.57;;;;;;;;;;5027919;28;20245;-57
2024/01/14 11:57:56;;;;;;;12.83;8.23;;;;;;;;;;5025869;28;20197;-57
2024/01/14 12:00:26;;;;;;;13.13;8.93;;;;;;;;;;5015230;28;20175;-57
2024/01/14 12:03:08;;;;;;;11.83;7.73;;;;;;;;;;5014681;28;20163;-58
2024/01/14 12:05:34;;;;;;;14.33;8.33;;;;;;;;;;5011984;28;20186;-57
2024/01/14 12:08:00;;;;;;;13.23;8.70;;;;;;;;;;5023499;28;20252;-57
2024/01/14 12:10:28;;;;;;;11.53;7.87;;;;;;;;;;5025015;28;20649;-54
2024/01/14 12:12:54;;;;;;;10.90;7.40;;;;;;;;;;5032412;28;20208;-54
2024/01/14 12:15:20;;;;;;;10.50;7.13;;;;;;;;;;5022060;28;20655;-54
2024/01/14 12:17:53;;;;;;;13.83;8.77;;;;;;;;;;5017788;28;20201;-53
2024/01/14 12:20:21;;;;;;;15.00;8.17;;;;;;;;;;5019497;28;20536;-54
2024/01/14 12:22:47;;;;;;;11.40;7.97;;;;;;;;;;5026534;28;20186;-54
2024/01/14 12:25:13;;;;;;;9.90;7.40;;;;;;;;;;5019700;28;20177;-54
2024/01/14 12:27:41;;;;;;;12.63;8.60;;;;;;;;;;5020741;28;20190;-54
2024/01/14 12:30:09;;;;;;;11.13;7.30;;;;;;;;;;5024135;28;20538;-54
2024/01/14 12:32:36;;;;;;;12.60;7.90;;;;;;;;;;5014307;28;20177;-54
2024/01/14 12:35:01;;;;;;;12.07;8.13;;;;;;;;;;5018476;28;20646;-54
2024/01/14 12:37:28;;;;;;;11.97;8.57;;;;;;;;;;5017177;28;20202;-54
2024/01/14 12:39:54;;;;;;;10.63;7.13;;;;;;;;;;5025695;28;20213;-54
2024/01/14 12:42:20;;;;;;;12.17;8.37;;;;;;;;;;5029118;28;20721;-54
2024/01/14 12:44:46;;;;;;;12.17;8.20;;;;;;;;;;5015263;28;20701;-54
2024/01/14 12:47:12;;;;;;;11.57;7.40;;;;;;;;;;5030427;28;20177;-54
2024/01/14 12:49:39;;;;;;;13.33;8.83;;;;;;;;;;5019251;28;20610;-54
2024/01/14 12:52:06;;;;;;;11.37;8.53;;;;;;;;;;5022540;28;20619;-54
2024/01/14 12:54:32;;;;;;;13.73;8.83;;;;;;;;;;5031752;28;20618;-54
2024/01/14 12:57:07;;;;;;;12.87;8.30;;;;;;;;;;5019677;28;20174;-54
2024/01/14 12:59:33;;;;;;;13.63;8.97;;;;;;;;;;5024841;28;20621;-55
2024/01/14 13:02:00;;;;;;;13.03;8.53;;;;;;;;;;5021819;28;20599;-54
2024/01/14 13:04:28;;;;;;;12.67;8.40;;;;;;;;;;5020321;28;20171;-54
2024/01/14 13:06:54;;;;;;;11.70;7.77;;;;;;;;;;5022100;28;20229;-54
2024/01/14 13:09:20;;;;;;;12.20;8.77;;;;;;;;;;5024563;28;20661;-54
2024/01/14 13:11:47;;;;;;;13.60;9.37;;;;;;;;;;5021529;28;20284;-54
2024/01/14 13:14:13;;;;;;;11.83;7.77;;;;;;;;;;5016612;28;20265;-54
2024/01/14 13:16:39;;;;;;;13.40;7.73;;;;;;;;;;5025192;28;20193;-53
2024/01/14 13:19:05;;;;;;;11.97;7.80;;;;;;;;;;5022745;28;20197;-53
2024/01/14 13:21:32;;;;;;;10.10;7.83;;;;;;;;;;5027244;28;20652;-52
2024/01/14 13:23:58;;;;;;;10.53;7.37;;;;;;;;;;5023580;28;20715;-52
2024/01/14 13:26:26;;;;;;;9.67;7.43;;;;;;;;;;5022611;28;20265;-51
2024/01/14 13:28:52;;;;;;;12.03;8.03;;;;;;;;;;5012530;28;20191;-51
2024/01/14 13:31:18;;;;;;;13.40;8.33;;;;;;;;;;5018827;28;20269;-52
2024/01/14 13:33:44;;;;;;;11.77;7.90;;;;;;;;;;5012194;28;20324;-52
2024/01/14 13:36:10;;;;;;;11.57;8.37;;;;;;;;;;5014302;28;20194;-51
2024/01/14 13:38:36;;;;;;;12.43;8.00;;;;;;;;;;5028549;28;20218;-51
2024/01/14 13:41:03;;;;;;;12.47;8.33;;;;;;;;;;5023896;28;20301;-51
2024/01/14 13:43:28;;;;;;;11.87;8.43;;;;;;;;;;5023805;28;20193;-54
2024/01/14 13:45:54;;;;;;;12.33;8.57;;;;;;;;;;5017151;28;20224;-54
2024/01/14 13:48:21;;;;;;;12.97;8.20;;;;;;;;;;5015854;28;20621;-54
2024/01/14 13:50:47;;;;;;;13.83;8.60;;;;;;;;;;5017095;28;20361;-53
2024/01/14 13:53:13;;;;;;;12.73;8.77;;;;;;;;;;5018507;28;20209;-54
2024/01/14 13:55:39;;;;;;;12.13;8.27;;;;;;;;;;5016735;28;20662;-54
2024/01/14 13:58:05;;;;;;;12.23;8.60;;;;;;;;;;5022544;28;20726;-54
2024/01/14 14:00:33;;;;;;;13.87;8.27;;;;;;;;;;5020917;28;20182;-54
2024/01/14 14:02:59;;;;;;;12.53;8.40;;;;;;;;;;5018420;28;20182;-54
2024/01/14 14:05:25;;;;;;;12.03;8.17;;;;;;;;;;5020812;28;20875;-54
2024/01/14 14:07:52;;;;;;;11.40;7.97;;;;;;;;;;5017176;28;20261;-54
2024/01/14 14:10:18;;;;;;;12.43;7.83;;;;;;;;;;5022162;28;20194;-54
2024/01/14 14:12:44;;;;;;;13.17;8.90;;;;;;;;;;5001624;28;20537;-54
2024/01/14 14:15:10;;;;;;;12.13;7.73;;;;;;;;;;5023104;28;20197;-54
2024/01/14 14:17:36;;;;;;;11.87;8.23;;;;;;;;;;5015188;28;20198;-54
2024/01/14 14:20:02;;;;;;;13.27;8.47;;;;;;;;;;5022099;28;20735;-54
2024/01/14 14:22:29;;;;;;;10.83;7.70;;;;;;;;;;5016133;28;20268;-53
2024/01/14 14:24:55;;;;;;;12.60;8.60;;;;;;;;;;5025410;28;20208;-54